Time;durP1;ratioP1;P1;durP2;ratioP2;P2;SDS_P1;SDS_P2;PMS_P1;PMS_P2;Temp;Humidity;BMP_temperature;BMP_pressure;BME280_temperature;BME280_humidity;BME280_pressure;Samples;Min_cycle;Max_cycle;Signal;HPM_P1;HPM_P2
2023/12/04 00:02:34;;;;;;;13.60;8.68;;;;;;;;;;5097187;28;20370;-77
2023/12/04 00:05:20;;;;;;;16.15;9.45;;;;;;;;;;5096443;28;20028;-76
2023/12/04 00:08:05;;;;;;;13.07;7.95;;;;;;;;;;5095886;28;20027;-77
2023/12/04 00:10:51;;;;;;;13.43;8.32;;;;;;;;;;5095968;28;20102;-76
2023/12/04 00:13:37;;;;;;;12.43;7.63;;;;;;;;;;5096192;28;20035;-77
2023/12/04 00:16:23;;;;;;;12.25;7.70;;;;;;;;;;5095838;28;20043;-76
2023/12/04 00:19:09;;;;;;;14.15;7.80;;;;;;;;;;5096971;28;20028;-76
2023/12/04 00:21:55;;;;;;;13.18;7.85;;;;;;;;;;5096327;28;20048;-77
2023/12/04 00:24:40;;;;;;;14.63;8.45;;;;;;;;;;5095648;28;20063;-77
2023/12/04 00:27:27;;;;;;;12.73;8.00;;;;;;;;;;5081342;28;20073;-77
2023/12/04 00:30:13;;;;;;;12.98;7.75;;;;;;;;;;5095777;28;20337;-74
2023/12/04 00:32:58;;;;;;;13.50;8.07;;;;;;;;;;5095682;28;20342;-75
2023/12/04 00:35:44;;;;;;;15.88;8.63;;;;;;;;;;5095691;28;20504;-74
2023/12/04 00:38:29;;;;;;;12.48;7.65;;;;;;;;;;5081758;28;20031;-74
2023/12/04 00:41:15;;;;;;;13.80;7.97;;;;;;;;;;5094778;28;20020;-75
2023/12/04 00:44:01;;;;;;;14.00;7.85;;;;;;;;;;5095272;28;20038;-74
2023/12/04 00:46:46;;;;;;;12.98;8.00;;;;;;;;;;5095656;28;20058;-72
2023/12/04 00:49:32;;;;;;;13.90;8.13;;;;;;;;;;5080297;28;20467;-74
2023/12/04 00:52:17;;;;;;;13.15;8.43;;;;;;;;;;5096050;28;20056;-74
2023/12/04 00:55:03;;;;;;;16.02;8.48;;;;;;;;;;5096077;28;20016;-75
2023/12/04 00:57:49;;;;;;;14.50;8.23;;;;;;;;;;5094690;28;20020;-74
2023/12/04 01:00:35;;;;;;;13.35;8.10;;;;;;;;;;5079641;28;20020;-74
2023/12/04 01:03:20;;;;;;;12.85;7.72;;;;;;;;;;5095669;28;20039;-74
2023/12/04 01:06:06;;;;;;;13.32;7.85;;;;;;;;;;5094788;28;20116;-74
2023/12/04 01:08:53;;;;;;;12.75;8.13;;;;;;;;;;5080675;28;20031;-74
2023/12/04 01:11:38;;;;;;;13.15;8.45;;;;;;;;;;5080016;28;20030;-74
2023/12/04 01:14:24;;;;;;;13.13;7.60;;;;;;;;;;5094911;28;20017;-74
2023/12/04 01:17:10;;;;;;;13.35;7.57;;;;;;;;;;5082004;28;20085;-74
2023/12/04 01:19:57;;;;;;;12.65;7.75;;;;;;;;;;5094872;28;20376;-73
2023/12/04 01:22:42;;;;;;;13.38;8.05;;;;;;;;;;5094896;28;20027;-74
2023/12/04 01:25:28;;;;;;;12.52;7.57;;;;;;;;;;5095476;28;20403;-74
2023/12/04 01:28:14;;;;;;;11.75;7.43;;;;;;;;;;5096612;28;20024;-75
2023/12/04 01:31:00;;;;;;;12.80;7.45;;;;;;;;;;5080189;28;20023;-74
2023/12/04 01:33:45;;;;;;;12.18;7.50;;;;;;;;;;5095796;28;20027;-74
2023/12/04 01:36:31;;;;;;;10.20;6.63;;;;;;;;;;5096017;28;20016;-73
2023/12/04 01:39:16;;;;;;;12.57;7.20;;;;;;;;;;5094762;28;20024;-74
2023/12/04 01:42:02;;;;;;;14.23;7.32;;;;;;;;;;5095528;28;20467;-73
2023/12/04 01:44:48;;;;;;;10.65;7.38;;;;;;;;;;5093902;28;20056;-74
2023/12/04 01:47:33;;;;;;;11.30;6.93;;;;;;;;;;5094744;28;20031;-75
2023/12/04 01:50:19;;;;;;;11.70;7.32;;;;;;;;;;5095340;28;20384;-75
2023/12/04 01:53:05;;;;;;;13.10;7.60;;;;;;;;;;5083446;28;20031;-75
2023/12/04 01:55:51;;;;;;;12.15;7.43;;;;;;;;;;5098681;28;20040;-76
2023/12/04 01:58:37;;;;;;;13.30;7.50;;;;;;;;;;5099009;28;20024;-76
2023/12/04 02:01:23;;;;;;;11.82;7.30;;;;;;;;;;5082703;28;20024;-76
2023/12/04 02:04:09;;;;;;;12.00;7.88;;;;;;;;;;5100336;27;20513;-75
2023/12/04 02:06:54;;;;;;;11.60;7.35;;;;;;;;;;5099934;28;20364;-77
2023/12/04 02:09:40;;;;;;;12.05;7.60;;;;;;;;;;5099656;28;20023;-76
2023/12/04 02:12:25;;;;;;;12.95;7.57;;;;;;;;;;5098609;28;20018;-77
2023/12/04 02:15:11;;;;;;;11.23;7.18;;;;;;;;;;5084054;28;20012;-76
2023/12/04 02:17:57;;;;;;;12.77;7.70;;;;;;;;;;5098225;28;20016;-75
2023/12/04 02:20:43;;;;;;;12.30;7.10;;;;;;;;;;5098785;28;20020;-76
2023/12/04 02:23:28;;;;;;;14.15;7.10;;;;;;;;;;5098368;28;20389;-75
2023/12/04 02:26:16;;;;;;;11.48;7.18;;;;;;;;;;5084094;28;20013;-76
2023/12/04 02:29:05;;;;;;;11.52;7.15;;;;;;;;;;5099006;28;20028;-76
2023/12/04 02:31:51;;;;;;;12.32;7.32;;;;;;;;;;5098900;28;20024;-75
2023/12/04 02:34:37;;;;;;;12.43;7.20;;;;;;;;;;5097292;28;20333;-76
2023/12/04 02:37:23;;;;;;;12.27;7.40;;;;;;;;;;5098575;28;20333;-76
2023/12/04 02:40:10;;;;;;;13.13;7.10;;;;;;;;;;5099248;27;20028;-77
2023/12/04 02:42:56;;;;;;;12.48;7.10;;;;;;;;;;5083926;28;20020;-77
2023/12/04 02:45:41;;;;;;;12.82;7.65;;;;;;;;;;5097687;28;20441;-76
2023/12/04 02:48:27;;;;;;;11.10;6.80;;;;;;;;;;5098062;28;20028;-76
2023/12/04 02:51:12;;;;;;;11.88;6.85;;;;;;;;;;5098000;28;20044;-76
2023/12/04 02:53:58;;;;;;;15.32;7.13;;;;;;;;;;5097935;28;20016;-76
2023/12/04 02:56:43;;;;;;;12.35;7.28;;;;;;;;;;5097534;28;20375;-77
2023/12/04 02:59:29;;;;;;;12.63;7.22;;;;;;;;;;5097098;28;20060;-75
2023/12/04 03:02:15;;;;;;;12.43;6.78;;;;;;;;;;5097171;28;20020;-76
2023/12/04 03:05:00;;;;;;;13.23;6.65;;;;;;;;;;5097013;28;20103;-76
2023/12/04 03:07:46;;;;;;;13.68;7.15;;;;;;;;;;5098132;28;20114;-75
2023/12/04 03:10:31;;;;;;;11.50;6.68;;;;;;;;;;5083222;28;20020;-75
2023/12/04 03:13:17;;;;;;;11.35;6.53;;;;;;;;;;5082560;28;20103;-76
2023/12/04 03:16:03;;;;;;;14.02;6.68;;;;;;;;;;5096771;28;20074;-76
2023/12/04 03:18:48;;;;;;;12.75;7.50;;;;;;;;;;5097356;28;20028;-76
2023/12/04 03:21:34;;;;;;;10.68;6.50;;;;;;;;;;5083245;28;20016;-75
2023/12/04 03:24:20;;;;;;;10.63;6.18;;;;;;;;;;5096935;28;20020;-76
2023/12/04 03:27:05;;;;;;;13.82;7.10;;;;;;;;;;5098017;28;20432;-75
2023/12/04 03:29:51;;;;;;;13.15;7.55;;;;;;;;;;5097172;28;20035;-75
2023/12/04 03:32:36;;;;;;;10.50;6.47;;;;;;;;;;5098268;28;20017;-75
2023/12/04 03:35:22;;;;;;;11.38;6.43;;;;;;;;;;5096710;28;20012;-75
2023/12/04 03:38:07;;;;;;;10.10;6.47;;;;;;;;;;5096559;28;20016;-75
2023/12/04 03:40:53;;;;;;;13.30;7.38;;;;;;;;;;5097266;28;20440;-76
2023/12/04 03:43:39;;;;;;;11.48;6.95;;;;;;;;;;5096217;28;20039;-75
2023/12/04 03:46:25;;;;;;;12.05;6.75;;;;;;;;;;5082627;28;20107;-75
2023/12/04 03:49:11;;;;;;;12.65;6.60;;;;;;;;;;5095862;28;20024;-75
2023/12/04 03:51:57;;;;;;;11.48;6.50;;;;;;;;;;5083293;28;20069;-75
2023/12/04 03:54:42;;;;;;;11.73;6.60;;;;;;;;;;5096147;28;20017;-72
2023/12/04 03:57:28;;;;;;;10.73;6.47;;;;;;;;;;5082427;28;20015;-73
2023/12/04 04:00:14;;;;;;;12.27;6.60;;;;;;;;;;5095910;28;20016;-73
2023/12/04 04:02:59;;;;;;;10.85;6.28;;;;;;;;;;5096446;28;20105;-72
2023/12/04 04:05:45;;;;;;;13.40;6.85;;;;;;;;;;5097225;28;20415;-71
2023/12/04 04:08:30;;;;;;;11.95;6.43;;;;;;;;;;5096406;28;20032;-71
2023/12/04 04:11:16;;;;;;;12.10;6.90;;;;;;;;;;5096080;28;20024;-72
2023/12/04 04:14:02;;;;;;;9.52;6.05;;;;;;;;;;5095175;28;20020;-71
2023/12/04 04:16:47;;;;;;;11.45;6.28;;;;;;;;;;5095867;28;20044;-71
2023/12/04 04:19:33;;;;;;;10.82;6.50;;;;;;;;;;5095715;28;20480;-72
2023/12/04 04:22:19;;;;;;;10.23;6.05;;;;;;;;;;5081459;28;20087;-75
2023/12/04 04:25:08;;;;;;;11.88;6.32;;;;;;;;;;5096659;28;20084;-75
2023/12/04 04:27:53;;;;;;;11.02;7.05;;;;;;;;;;5096363;28;20035;-75
2023/12/04 04:30:40;;;;;;;9.32;6.28;;;;;;;;;;5096104;28;20043;-75
2023/12/04 04:33:25;;;;;;;10.82;6.20;;;;;;;;;;5082314;28;20095;-76
2023/12/04 04:36:11;;;;;;;9.50;6.07;;;;;;;;;;5082139;28;20016;-73
2023/12/04 04:38:57;;;;;;;11.60;6.22;;;;;;;;;;5095301;28;20013;-74
2023/12/04 04:41:43;;;;;;;11.88;6.95;;;;;;;;;;5082573;28;20031;-73
2023/12/04 04:44:29;;;;;;;11.20;6.35;;;;;;;;;;5081363;28;20368;-74
2023/12/04 04:47:14;;;;;;;11.73;6.55;;;;;;;;;;5095809;28;20059;-74
2023/12/04 04:50:00;;;;;;;12.88;6.80;;;;;;;;;;5095755;28;20089;-74
2023/12/04 04:52:46;;;;;;;13.50;6.95;;;;;;;;;;5095160;28;20157;-74
2023/12/04 04:55:31;;;;;;;11.50;7.00;;;;;;;;;;5094821;28;20022;-74
2023/12/04 04:58:17;;;;;;;11.55;6.70;;;;;;;;;;5081085;28;20028;-73
2023/12/04 05:01:04;;;;;;;11.32;6.57;;;;;;;;;;5095724;28;20028;-73
2023/12/04 05:03:49;;;;;;;11.38;6.78;;;;;;;;;;5095431;28;20031;-74
2023/12/04 05:06:35;;;;;;;11.18;6.45;;;;;;;;;;5095427;28;20020;-74
2023/12/04 05:09:20;;;;;;;12.18;6.80;;;;;;;;;;5095476;28;20031;-74
2023/12/04 05:12:06;;;;;;;12.23;7.30;;;;;;;;;;5094106;28;20027;-75
2023/12/04 05:14:51;;;;;;;13.52;7.28;;;;;;;;;;5094497;28;20105;-75
2023/12/04 05:17:37;;;;;;;11.95;6.97;;;;;;;;;;5095061;28;20463;-74
2023/12/04 05:20:23;;;;;;;12.90;7.10;;;;;;;;;;5095729;28;20467;-75
2023/12/04 05:23:08;;;;;;;11.57;6.95;;;;;;;;;;5096323;28;20020;-74
2023/12/04 05:25:54;;;;;;;13.32;7.40;;;;;;;;;;5095389;28;20016;-74
2023/12/04 05:28:40;;;;;;;11.95;7.00;;;;;;;;;;5095493;28;20016;-74
2023/12/04 05:31:26;;;;;;;12.35;7.20;;;;;;;;;;5095950;28;20397;-74
2023/12/04 05:34:11;;;;;;;14.27;7.00;;;;;;;;;;5095053;28;20012;-73
2023/12/04 05:36:57;;;;;;;12.45;7.50;;;;;;;;;;5096426;28;20095;-72
2023/12/04 05:39:42;;;;;;;11.10;6.60;;;;;;;;;;5081122;28;20042;-73
2023/12/04 05:42:28;;;;;;;12.02;7.28;;;;;;;;;;5080335;28;20035;-72
2023/12/04 05:45:14;;;;;;;14.35;7.68;;;;;;;;;;5095216;28;20031;-73
2023/12/04 05:47:59;;;;;;;13.20;7.10;;;;;;;;;;5080446;28;20039;-74
2023/12/04 05:50:45;;;;;;;13.20;7.28;;;;;;;;;;5095316;28;20047;-73
2023/12/04 05:53:30;;;;;;;11.45;6.97;;;;;;;;;;5094216;28;20023;-73
2023/12/04 05:56:16;;;;;;;10.18;6.35;;;;;;;;;;5081108;28;20318;-73
2023/12/04 05:59:02;;;;;;;14.88;7.05;;;;;;;;;;5080843;28;20024;-73
2023/12/04 06:01:48;;;;;;;12.93;7.03;;;;;;;;;;5095989;28;20027;-73
2023/12/04 06:04:33;;;;;;;10.73;6.03;;;;;;;;;;5094427;28;20448;-73
2023/12/04 06:07:19;;;;;;;13.63;7.05;;;;;;;;;;5094614;28;20028;-74
2023/12/04 06:10:05;;;;;;;12.65;6.75;;;;;;;;;;5094489;28;20050;-74
2023/12/04 06:12:50;;;;;;;11.88;6.80;;;;;;;;;;5093420;28;20103;-74
2023/12/04 06:15:36;;;;;;;12.60;6.97;;;;;;;;;;5093800;28;20020;-72
2023/12/04 06:18:21;;;;;;;12.27;7.28;;;;;;;;;;5095838;28;20448;-73
2023/12/04 06:21:07;;;;;;;15.38;9.23;;;;;;;;;;5094871;28;20076;-73
2023/12/04 06:23:53;;;;;;;15.50;9.25;;;;;;;;;;5095008;28;20104;-73
2023/12/04 06:26:42;;;;;;;23.42;15.10;;;;;;;;;;5080706;28;20024;-74
2023/12/04 06:29:27;;;;;;;22.83;12.45;;;;;;;;;;5094003;28;20422;-73
2023/12/04 06:32:13;;;;;;;16.77;9.20;;;;;;;;;;5094574;28;20012;-73
2023/12/04 06:34:59;;;;;;;14.63;7.95;;;;;;;;;;5095492;28;20023;-73
2023/12/04 06:37:45;;;;;;;13.82;7.75;;;;;;;;;;5095828;28;20054;-73
2023/12/04 06:40:32;;;;;;;17.35;9.02;;;;;;;;;;5082995;28;20036;-74
2023/12/04 06:43:18;;;;;;;20.67;10.63;;;;;;;;;;5098976;28;20043;-73
2023/12/04 06:46:05;;;;;;;18.65;10.45;;;;;;;;;;5097830;28;20076;-73
2023/12/04 06:48:54;;;;;;;16.95;8.85;;;;;;;;;;5098281;28;20024;-75
2023/12/04 06:51:39;;;;;;;14.93;8.93;;;;;;;;;;5097577;28;20127;-73
2023/12/04 06:54:26;;;;;;;15.65;8.40;;;;;;;;;;5097726;28;20015;-74
2023/12/04 06:57:14;;;;;;;13.25;7.82;;;;;;;;;;5097676;28;20440;-76
2023/12/04 07:00:00;;;;;;;12.13;6.90;;;;;;;;;;5083599;28;20086;-78
2023/12/04 07:02:45;;;;;;;12.13;6.63;;;;;;;;;;5083909;28;20016;-78
2023/12/04 07:05:31;;;;;;;12.40;6.80;;;;;;;;;;5097622;28;20035;-77
2023/12/04 07:08:16;;;;;;;29.48;19.15;;;;;;;;;;5083912;28;20400;-75
2023/12/04 07:11:02;;;;;;;15.55;7.93;;;;;;;;;;5098217;28;20077;-76
2023/12/04 07:13:48;;;;;;;15.63;7.10;;;;;;;;;;5083529;28;20036;-77
2023/12/04 07:16:41;;;;;;;12.95;6.70;;;;;;;;;;5083272;28;20125;-77
2023/12/04 07:19:26;;;;;;;12.70;6.78;;;;;;;;;;5098687;27;20356;-77
2023/12/04 07:22:12;;;;;;;13.32;6.80;;;;;;;;;;5082827;28;20023;-77
2023/12/04 07:24:58;;;;;;;13.90;7.05;;;;;;;;;;5097095;28;20028;-78
2023/12/04 07:27:43;;;;;;;14.85;7.60;;;;;;;;;;5096978;28;20016;-78
2023/12/04 07:30:29;;;;;;;14.68;7.85;;;;;;;;;;5096492;28;20020;-76
2023/12/04 07:33:14;;;;;;;13.50;7.88;;;;;;;;;;5096500;28;20077;-77
2023/12/04 07:36:00;;;;;;;13.65;8.25;;;;;;;;;;5096559;28;20026;-77
2023/12/04 07:38:46;;;;;;;34.25;8.45;;;;;;;;;;5096949;28;20030;-78
2023/12/04 07:41:31;;;;;;;10.85;6.70;;;;;;;;;;5082531;28;20048;-76
2023/12/04 07:44:17;;;;;;;10.68;6.60;;;;;;;;;;5082572;28;20111;-76
2023/12/04 07:47:03;;;;;;;12.52;6.32;;;;;;;;;;5082697;28;20020;-76
2023/12/04 07:49:48;;;;;;;11.23;6.10;;;;;;;;;;5094977;28;20035;-76
2023/12/04 07:52:34;;;;;;;10.30;5.95;;;;;;;;;;5096206;28;20096;-75
2023/12/04 07:55:19;;;;;;;10.88;6.22;;;;;;;;;;5096532;28;20073;-76
2023/12/04 07:58:05;;;;;;;13.23;5.93;;;;;;;;;;5095916;28;20023;-76
2023/12/04 08:00:51;;;;;;;9.98;5.85;;;;;;;;;;5081927;28;20039;-75
2023/12/04 08:03:36;;;;;;;11.38;5.80;;;;;;;;;;5095256;28;20047;-75
2023/12/04 08:06:23;;;;;;;9.93;5.72;;;;;;;;;;5095794;28;20035;-74
2023/12/04 08:09:10;;;;;;;16.35;7.25;;;;;;;;;;5081123;28;20498;-76
2023/12/04 08:11:55;;;;;;;9.68;5.75;;;;;;;;;;5095388;28;20038;-74
2023/12/04 08:14:41;;;;;;;9.77;5.80;;;;;;;;;;5096236;28;20012;-78
2023/12/04 08:17:26;;;;;;;8.40;5.60;;;;;;;;;;5080594;28;20027;-74
2023/12/04 08:20:13;;;;;;;9.50;5.53;;;;;;;;;;5097002;27;20016;-77
2023/12/04 08:22:59;;;;;;;9.05;5.63;;;;;;;;;;5095998;28;20035;-76
2023/12/04 08:25:45;;;;;;;7.57;5.30;;;;;;;;;;5096503;28;20050;-75
2023/12/04 08:28:31;;;;;;;11.10;5.90;;;;;;;;;;5095557;28;20403;-75
2023/12/04 08:31:17;;;;;;;9.32;5.72;;;;;;;;;;5095855;28;20077;-77
2023/12/04 08:34:02;;;;;;;10.50;6.07;;;;;;;;;;5096585;28;20098;-76
2023/12/04 08:36:48;;;;;;;10.98;6.57;;;;;;;;;;5095553;28;20024;-76
2023/12/04 08:39:34;;;;;;;10.40;6.22;;;;;;;;;;5081967;28;20055;-76
2023/12/04 08:42:20;;;;;;;14.48;7.50;;;;;;;;;;5094961;28;20514;-76
2023/12/04 08:45:06;;;;;;;9.02;6.22;;;;;;;;;;5081264;28;20020;-72
2023/12/04 08:47:51;;;;;;;9.63;6.32;;;;;;;;;;5095943;28;20039;-75
2023/12/04 08:50:37;;;;;;;9.93;6.60;;;;;;;;;;5081209;28;20136;-75
2023/12/04 08:53:23;;;;;;;10.18;6.45;;;;;;;;;;5095017;28;20357;-75
2023/12/04 08:56:09;;;;;;;10.82;6.45;;;;;;;;;;5081805;28;20027;-74
2023/12/04 08:58:55;;;;;;;11.40;6.43;;;;;;;;;;5080017;28;20070;-74
2023/12/04 09:01:41;;;;;;;12.75;6.22;;;;;;;;;;5094847;28;20487;-75
2023/12/04 09:04:26;;;;;;;11.82;6.22;;;;;;;;;;5096921;27;20360;-75
2023/12/04 09:07:12;;;;;;;9.57;6.00;;;;;;;;;;5096762;28;20357;-75
2023/12/04 09:09:58;;;;;;;11.50;5.68;;;;;;;;;;5080547;28;20024;-75
2023/12/04 09:12:43;;;;;;;11.32;5.55;;;;;;;;;;5095190;28;20035;-75
2023/12/04 09:15:29;;;;;;;10.98;6.15;;;;;;;;;;5096284;28;20036;-74
2023/12/04 09:18:15;;;;;;;11.23;5.72;;;;;;;;;;5095115;28;20027;-76
2023/12/04 09:21:01;;;;;;;9.75;6.00;;;;;;;;;;5094648;28;20028;-75
2023/12/04 09:23:49;;;;;;;11.07;5.97;;;;;;;;;;5095521;28;20032;-75
2023/12/04 09:26:35;;;;;;;12.90;6.03;;;;;;;;;;5097440;28;20031;-74
2023/12/04 09:29:23;;;;;;;9.93;6.05;;;;;;;;;;5095504;28;20051;-74
2023/12/04 09:32:10;;;;;;;10.68;6.80;;;;;;;;;;5095299;28;20020;-75
2023/12/04 09:34:55;;;;;;;10.20;6.07;;;;;;;;;;5095346;28;20016;-75
2023/12/04 09:37:41;;;;;;;9.32;5.80;;;;;;;;;;5095201;28;20028;-74
2023/12/04 09:40:26;;;;;;;12.88;7.00;;;;;;;;;;5095105;28;20054;-74
2023/12/04 09:43:12;;;;;;;10.00;6.75;;;;;;;;;;5080628;28;20042;-73
2023/12/04 09:46:01;;;;;;;12.73;6.10;;;;;;;;;;5096583;28;20028;-73
2023/12/04 09:48:46;;;;;;;12.68;6.18;;;;;;;;;;5095878;28;20457;-75
2023/12/04 09:51:32;;;;;;;9.98;6.32;;;;;;;;;;5081746;28;20475;-74
2023/12/04 09:54:19;;;;;;;12.10;6.03;;;;;;;;;;5096372;28;20023;-75
2023/12/04 09:57:05;;;;;;;11.80;6.18;;;;;;;;;;5096320;28;20083;-75
2023/12/04 09:59:50;;;;;;;10.93;6.15;;;;;;;;;;5106836;28;20024;-71
2023/12/04 10:02:36;;;;;;;9.60;5.50;;;;;;;;;;5105416;28;20028;-71
2023/12/04 10:05:23;;;;;;;8.20;5.22;;;;;;;;;;5108774;28;20084;-73
2023/12/04 10:08:09;;;;;;;10.00;5.82;;;;;;;;;;5090341;28;20063;-73
2023/12/04 10:10:54;;;;;;;9.18;5.50;;;;;;;;;;5105853;28;20439;-73
2023/12/04 10:13:40;;;;;;;10.82;6.15;;;;;;;;;;5110789;28;20020;-74
2023/12/04 10:16:36;;;;;;;13.30;7.63;;;;;;;;;;5113105;28;20502;-75
2023/12/04 10:19:26;;;;;;;10.18;5.93;;;;;;;;;;5112921;28;20118;-74
2023/12/04 10:22:13;;;;;;;10.40;6.25;;;;;;;;;;5111061;28;20031;-73
2023/12/04 10:24:59;;;;;;;9.98;5.97;;;;;;;;;;5097729;28;20045;-74
2023/12/04 10:27:45;;;;;;;9.88;6.00;;;;;;;;;;5097540;28;20078;-74
2023/12/04 10:30:31;;;;;;;11.25;6.30;;;;;;;;;;5110503;28;20040;-74
2023/12/04 10:33:17;;;;;;;9.35;6.15;;;;;;;;;;5108945;28;20126;-75
2023/12/04 10:36:02;;;;;;;11.80;6.55;;;;;;;;;;5110560;28;20013;-76
2023/12/04 10:38:57;;;;;;;10.55;6.18;;;;;;;;;;5102201;28;20157;-76
2023/12/04 10:41:43;;;;;;;10.85;6.63;;;;;;;;;;5101285;28;20036;-75
2023/12/04 10:44:32;;;;;;;10.65;6.65;;;;;;;;;;5099423;28;20102;-76
2023/12/04 10:47:21;;;;;;;10.43;6.35;;;;;;;;;;5099443;28;20418;-76
2023/12/04 10:50:07;;;;;;;9.93;5.93;;;;;;;;;;5098110;28;20081;-76
2023/12/04 10:52:53;;;;;;;10.52;6.30;;;;;;;;;;5083725;28;20028;-76
2023/12/04 10:55:40;;;;;;;11.35;6.55;;;;;;;;;;5098823;28;20385;-77
2023/12/04 10:58:26;;;;;;;12.02;6.53;;;;;;;;;;5100247;28;20436;-79
2023/12/04 11:01:12;;;;;;;11.75;6.43;;;;;;;;;;5109290;28;20039;-75
2023/12/04 11:03:59;;;;;;;11.15;6.10;;;;;;;;;;5103671;28;20028;-77
2023/12/04 11:06:46;;;;;;;11.00;6.50;;;;;;;;;;5104914;28;20035;-76
2023/12/04 11:09:34;;;;;;;13.73;7.75;;;;;;;;;;5110593;28;20020;-74
2023/12/04 11:12:23;;;;;;;14.45;7.32;;;;;;;;;;5093078;28;20127;-75
2023/12/04 11:15:10;;;;;;;13.27;8.13;;;;;;;;;;5104653;28;20026;-70
2023/12/04 11:17:59;;;;;;;11.90;7.47;;;;;;;;;;5105566;28;20053;-72
2023/12/04 11:20:48;;;;;;;11.00;6.63;;;;;;;;;;5106919;28;20020;-71
2023/12/04 11:23:34;;;;;;;11.93;6.70;;;;;;;;;;5105842;28;20024;-73
2023/12/04 11:26:20;;;;;;;10.68;7.00;;;;;;;;;;5087953;28;20020;-71
2023/12/04 11:29:08;;;;;;;10.63;6.82;;;;;;;;;;5101436;28;20020;-74
2023/12/04 11:31:54;;;;;;;9.60;5.80;;;;;;;;;;5101271;28;20463;-72
2023/12/04 11:34:47;;;;;;;10.30;5.80;;;;;;;;;;5104351;28;20012;-71
2023/12/04 11:37:33;;;;;;;12.60;7.32;;;;;;;;;;5090714;28;20363;-73
2023/12/04 11:40:19;;;;;;;10.20;6.20;;;;;;;;;;5101716;28;20059;-73
2023/12/04 11:43:23;;;;;;;8.25;5.63;;;;;;;;;;5083460;28;20385;-72
2023/12/04 11:46:13;;;;;;;9.95;6.03;;;;;;;;;;5099718;28;20028;-71
2023/12/04 11:49:25;;;;;;;11.02;5.68;;;;;;;;;;5099843;28;20020;-71
2023/12/04 11:52:11;;;;;;;8.88;5.22;;;;;;;;;;5096156;28;20056;-72
2023/12/04 11:55:00;;;;;;;10.48;6.57;;;;;;;;;;5096042;28;20035;-72
2023/12/04 11:57:46;;;;;;;11.40;5.97;;;;;;;;;;5096823;28;20039;-69
2023/12/04 12:00:34;;;;;;;9.93;6.25;;;;;;;;;;5097956;28;20418;-72
2023/12/04 12:03:20;;;;;;;14.07;7.43;;;;;;;;;;5096491;28;20051;-72
2023/12/04 12:06:06;;;;;;;10.90;6.43;;;;;;;;;;5082252;28;20031;-72
2023/12/04 12:08:52;;;;;;;10.98;6.25;;;;;;;;;;5097657;28;20028;-71
2023/12/04 12:11:38;;;;;;;11.90;6.50;;;;;;;;;;5096532;28;20024;-72
2023/12/04 12:14:24;;;;;;;10.27;6.40;;;;;;;;;;5082770;28;20344;-71
2023/12/04 12:17:10;;;;;;;10.68;6.13;;;;;;;;;;5082907;28;20016;-71
2023/12/04 12:19:58;;;;;;;12.82;6.88;;;;;;;;;;5081971;28;20416;-72
2023/12/04 12:22:44;;;;;;;11.93;7.22;;;;;;;;;;5081277;28;20062;-73
2023/12/04 12:25:30;;;;;;;9.60;5.97;;;;;;;;;;5082154;28;20036;-72
2023/12/04 12:28:15;;;;;;;10.65;6.43;;;;;;;;;;5082428;28;20498;-73
2023/12/04 12:31:03;;;;;;;11.20;6.65;;;;;;;;;;5096157;28;20027;-74
2023/12/04 12:33:49;;;;;;;13.27;7.47;;;;;;;;;;5098076;28;20016;-74
2023/12/04 12:36:34;;;;;;;10.95;6.63;;;;;;;;;;5083743;28;20041;-73
2023/12/04 12:39:22;;;;;;;10.95;6.97;;;;;;;;;;5097680;28;20016;-75
2023/12/04 12:42:07;;;;;;;11.00;6.22;;;;;;;;;;5095662;28;20035;-71
2023/12/04 12:44:55;;;;;;;12.23;6.30;;;;;;;;;;5098201;28;20050;-75
2023/12/04 12:47:41;;;;;;;10.52;6.35;;;;;;;;;;5097292;28;20020;-74
2023/12/04 12:50:27;;;;;;;15.32;6.93;;;;;;;;;;5094860;28;20185;-72
2023/12/04 12:53:13;;;;;;;10.50;6.30;;;;;;;;;;5095203;28;20445;-73
2023/12/04 12:56:00;;;;;;;11.07;6.75;;;;;;;;;;5081939;28;20352;-73
2023/12/04 12:58:46;;;;;;;10.85;6.65;;;;;;;;;;5095185;28;20104;-73
2023/12/04 13:01:32;;;;;;;11.25;6.97;;;;;;;;;;5095509;28;20024;-72
2023/12/04 13:04:18;;;;;;;11.38;6.60;;;;;;;;;;5095631;28;20039;-74
2023/12/04 13:07:06;;;;;;;11.88;6.75;;;;;;;;;;5081643;28;20019;-73
2023/12/04 13:09:53;;;;;;;11.77;6.38;;;;;;;;;;5095017;28;20032;-72
2023/12/04 13:12:38;;;;;;;14.52;7.05;;;;;;;;;;5080251;28;20031;-72
2023/12/04 13:15:24;;;;;;;15.70;7.72;;;;;;;;;;5093717;28;20028;-72
2023/12/04 13:18:10;;;;;;;12.45;7.05;;;;;;;;;;5097064;28;20024;-72
2023/12/04 13:20:56;;;;;;;11.90;7.32;;;;;;;;;;5094489;28;20380;-72
2023/12/04 13:23:41;;;;;;;14.32;8.10;;;;;;;;;;5095973;28;20051;-72
2023/12/04 13:26:27;;;;;;;12.30;6.90;;;;;;;;;;5094905;28;20020;-73
2023/12/04 13:29:17;;;;;;;15.30;7.65;;;;;;;;;;5094451;28;20020;-72
2023/12/04 13:32:05;;;;;;;11.07;6.55;;;;;;;;;;5094373;28;20031;-72
2023/12/04 13:34:51;;;;;;;13.40;7.40;;;;;;;;;;5079989;28;20467;-72
2023/12/04 13:37:38;;;;;;;16.15;7.68;;;;;;;;;;5094837;28;20028;-73
2023/12/04 13:40:28;;;;;;;18.58;8.82;;;;;;;;;;5094284;28;20433;-72
2023/12/04 13:46:17;;;;;;;13.82;7.95;;;;;;;;;;5095639;28;20020;-73
2023/12/04 13:49:03;;;;;;;16.45;8.70;;;;;;;;;;5098202;28;20360;-72
2023/12/04 13:51:49;;;;;;;19.33;9.80;;;;;;;;;;5097955;28;20528;-73
2023/12/04 13:54:44;;;;;;;17.95;9.73;;;;;;;;;;5085073;28;20321;-73
2023/12/04 13:57:33;;;;;;;16.65;9.27;;;;;;;;;;5083790;28;20077;-72
2023/12/04 14:00:19;;;;;;;22.77;11.80;;;;;;;;;;5098016;28;20089;-71
2023/12/04 14:03:05;;;;;;;26.38;10.70;;;;;;;;;;5083064;28;20012;-72
2023/12/04 14:05:51;;;;;;;16.58;9.73;;;;;;;;;;5098848;28;20089;-71
2023/12/04 14:08:37;;;;;;;16.42;9.48;;;;;;;;;;5099037;28;20088;-72
2023/12/04 14:11:22;;;;;;;17.65;9.40;;;;;;;;;;5092118;28;20020;-73
2023/12/04 14:14:08;;;;;;;20.63;11.02;;;;;;;;;;5077063;28;20491;-72
2023/12/04 14:16:54;;;;;;;18.00;9.80;;;;;;;;;;5073978;28;20026;-73
2023/12/04 14:19:41;;;;;;;17.58;9.85;;;;;;;;;;5097010;28;20023;-73
2023/12/04 14:22:26;;;;;;;18.25;9.20;;;;;;;;;;5097189;28;20448;-72
2023/12/04 14:25:12;;;;;;;21.50;10.57;;;;;;;;;;5097757;28;20399;-73
2023/12/04 14:27:57;;;;;;;19.42;10.20;;;;;;;;;;5081666;28;20028;-72
2023/12/04 14:30:44;;;;;;;22.17;11.70;;;;;;;;;;5095855;28;20031;-72
2023/12/04 14:33:30;;;;;;;28.27;12.38;;;;;;;;;;5096958;28;20329;-73
2023/12/04 14:36:16;;;;;;;20.75;10.70;;;;;;;;;;5082624;28;20020;-72
2023/12/04 14:39:02;;;;;;;20.65;10.63;;;;;;;;;;5095272;28;20030;-74
2023/12/04 14:41:48;;;;;;;29.35;11.45;;;;;;;;;;5094317;28;20020;-74
2023/12/04 14:44:33;;;;;;;24.90;10.85;;;;;;;;;;5095535;28;20047;-72
2023/12/04 14:47:19;;;;;;;26.20;11.75;;;;;;;;;;5096563;28;20016;-74
2023/12/04 14:50:06;;;;;;;23.92;11.95;;;;;;;;;;5081993;28;20024;-73
2023/12/04 14:52:54;;;;;;;30.65;12.40;;;;;;;;;;5095159;28;20414;-73
2023/12/04 15:21:58;;;;;;;27.98;14.98;;;;;;;;;;5096124;28;20073;-73
2023/12/04 15:24:43;;;;;;;28.67;14.10;;;;;;;;;;5095985;28;20028;-75
2023/12/04 15:27:29;;;;;;;26.58;14.82;;;;;;;;;;5096215;28;20031;-73
2023/12/04 15:30:15;;;;;;;28.88;15.35;;;;;;;;;;5096864;28;20027;-74
2023/12/04 15:33:01;;;;;;;25.63;15.27;;;;;;;;;;5096700;28;20016;-74
2023/12/04 15:35:47;;;;;;;28.27;16.88;;;;;;;;;;5096272;28;20051;-74
2023/12/04 15:38:32;;;;;;;30.17;15.93;;;;;;;;;;5096572;28;20016;-74
2023/12/04 15:41:20;;;;;;;31.00;16.85;;;;;;;;;;5096210;28;20140;-72
2023/12/04 15:44:06;;;;;;;30.60;17.27;;;;;;;;;;5097464;27;20113;-74
2023/12/04 15:46:51;;;;;;;32.83;17.73;;;;;;;;;;5095380;28;20038;-75
2023/12/04 15:49:37;;;;;;;36.85;16.88;;;;;;;;;;5095475;28;20024;-74
2023/12/04 15:52:25;;;;;;;34.38;16.95;;;;;;;;;;5096540;28;20068;-75
2023/12/04 15:55:12;;;;;;;42.25;17.83;;;;;;;;;;5097006;28;20016;-74
2023/12/04 15:57:57;;;;;;;36.03;18.02;;;;;;;;;;5096211;28;20103;-74
2023/12/04 16:00:43;;;;;;;57.38;20.45;;;;;;;;;;5095682;28;20371;-74
2023/12/04 16:03:29;;;;;;;46.75;20.80;;;;;;;;;;5095105;28;20036;-71
2023/12/04 16:06:15;;;;;;;36.97;19.30;;;;;;;;;;5095643;28;20016;-72
2023/12/04 16:09:01;;;;;;;41.13;20.42;;;;;;;;;;5095666;28;20016;-73
2023/12/04 16:11:46;;;;;;;35.25;19.33;;;;;;;;;;5079371;28;20123;-72
2023/12/04 16:14:32;;;;;;;45.35;18.45;;;;;;;;;;5094348;28;20028;-72
2023/12/04 16:17:18;;;;;;;44.15;20.55;;;;;;;;;;5093732;28;20027;-71
2023/12/04 16:20:06;;;;;;;45.80;20.23;;;;;;;;;;5094269;28;20361;-70
2023/12/04 16:22:52;;;;;;;41.33;21.33;;;;;;;;;;5094959;28;20027;-71
2023/12/04 16:25:38;;;;;;;41.15;20.15;;;;;;;;;;5093648;28;20110;-73
2023/12/04 16:28:23;;;;;;;45.70;19.83;;;;;;;;;;5078304;28;20024;-72
2023/12/04 16:31:09;;;;;;;41.45;21.33;;;;;;;;;;5094467;28;20020;-71
2023/12/04 16:33:55;;;;;;;50.15;24.83;;;;;;;;;;5093288;28;20086;-72
2023/12/04 16:36:40;;;;;;;57.55;27.48;;;;;;;;;;5092983;28;20024;-74
2023/12/04 16:39:26;;;;;;;55.30;28.92;;;;;;;;;;5093975;28;20031;-76
2023/12/04 16:42:12;;;;;;;57.33;26.92;;;;;;;;;;5094002;28;20031;-71
2023/12/04 16:44:57;;;;;;;55.47;26.02;;;;;;;;;;5094221;28;20028;-75
2023/12/04 16:47:43;;;;;;;50.40;25.75;;;;;;;;;;5094148;28;20099;-75
2023/12/04 16:50:30;;;;;;;62.10;27.77;;;;;;;;;;5093871;28;20056;-72